Time;durP1;ratioP1;P1;durP2;ratioP2;P2;SDS_P1;SDS_P2;PMS_P1;PMS_P2;Temp;Humidity;BMP_temperature;BMP_pressure;BME280_temperature;BME280_humidity;BME280_pressure;Samples;Min_cycle;Max_cycle;Signal;HPM_P1;HPM_P2
2021/12/22 00:04:45;;;;;;;38.95;16.00;;;-0.70;99.90;;;;;;20905410;28;20029;-76
2021/12/22 00:14:46;;;;;;;38.25;14.90;;;-0.70;99.90;;;;;;20906456;28;20037;-75
2021/12/22 00:24:47;;;;;;;41.75;15.98;;;-0.70;99.90;;;;;;20913000;28;20090;-77
2021/12/22 00:34:53;;;;;;;40.53;16.15;;;-0.70;99.90;;;;;;20919884;28;20178;-75
2021/12/22 00:44:54;;;;;;;42.05;15.43;;;-0.80;99.90;;;;;;20920319;28;20492;-78
2021/12/22 00:54:55;;;;;;;32.65;16.50;;;-0.80;99.90;;;;;;20926203;28;20089;-77
2021/12/22 01:04:56;;;;;;;40.83;16.58;;;-0.80;99.90;;;;;;20921140;28;20052;-76
2021/12/22 01:14:57;;;;;;;36.63;16.02;;;-0.80;99.90;;;;;;20917991;28;20029;-77
2021/12/22 01:25:03;;;;;;;37.25;16.20;;;-0.80;99.90;;;;;;20917063;28;20033;-77
2021/12/22 01:35:08;;;;;;;37.10;16.00;;;-0.80;99.90;;;;;;20923788;22;20391;-74
2021/12/22 01:56:04;;;;;;;35.05;15.63;;;-0.80;99.90;;;;;;20830597;28;20108;-74
2021/12/22 02:06:05;;;;;;;34.30;15.85;;;-0.80;99.90;;;;;;20829784;28;20557;-73
2021/12/22 02:16:10;;;;;;;39.38;16.63;;;-0.80;99.90;;;;;;20827612;28;20040;-74
2021/12/22 02:26:16;;;;;;;35.38;15.52;;;-0.70;99.90;;;;;;20826973;28;20040;-74
2021/12/22 02:46:23;;;;;;;35.80;15.10;;;-0.80;99.90;;;;;;20826309;28;20037;-74
2021/12/22 03:06:32;;;;;;;34.85;15.82;;;-0.70;99.90;;;;;;20825729;28;20052;-75
2021/12/22 03:16:33;;;;;;;33.47;15.02;;;-0.70;99.90;;;;;;20823945;28;20112;-75
2021/12/22 03:26:40;;;;;;;36.50;14.90;;;-0.70;99.90;;;;;;20824885;28;20069;-75
2021/12/22 03:36:42;;;;;;;36.20;14.93;;;-0.70;99.90;;;;;;20824480;28;20457;-75
2021/12/22 03:46:44;;;;;;;34.67;15.48;;;-0.80;99.90;;;;;;20825135;28;20042;-75
2021/12/22 03:56:44;;;;;;;35.20;14.73;;;-0.70;99.90;;;;;;20827958;28;20557;-75
2021/12/22 04:06:47;;;;;;;36.38;15.27;;;-0.70;99.90;;;;;;20844979;28;20033;-75
2021/12/22 04:16:48;;;;;;;42.50;15.02;;;-0.70;99.90;;;;;;20901410;28;20549;-75
2021/12/22 04:26:51;;;;;;;41.90;16.38;;;-0.70;99.90;;;;;;20919560;28;20029;-75
2021/12/22 04:36:52;;;;;;;40.53;15.80;;;-0.80;99.90;;;;;;20918890;28;20040;-75
2021/12/22 04:46:53;;;;;;;44.88;14.98;;;-0.70;99.90;;;;;;20918319;28;20031;-76
2021/12/22 04:56:55;;;;;;;36.45;15.90;;;-0.60;99.90;;;;;;20917671;28;20112;-76
2021/12/22 05:06:56;;;;;;;39.72;15.98;;;-0.60;99.90;;;;;;20916386;28;20090;-76
2021/12/22 05:17:01;;;;;;;38.90;15.98;;;-0.70;99.90;;;;;;20918525;28;20072;-75
2021/12/22 05:27:02;;;;;;;36.95;15.32;;;-0.80;99.90;;;;;;20918192;28;20053;-76
2021/12/22 05:37:03;;;;;;;41.47;16.33;;;-0.70;99.90;;;;;;20914908;28;20033;-77
2021/12/22 05:47:04;;;;;;;43.10;18.25;;;-0.70;99.90;;;;;;20853156;28;20044;-76
2021/12/22 05:57:05;;;;;;;43.97;17.17;;;-0.70;99.90;;;;;;20830992;28;20033;-76
2021/12/22 06:07:06;;;;;;;44.28;18.08;;;-0.70;99.90;;;;;;20830010;28;20167;-76
2021/12/22 06:17:07;;;;;;;46.65;18.63;;;-0.60;99.90;;;;;;20829366;28;20049;-76
2021/12/22 06:27:08;;;;;;;37.75;16.65;;;-0.70;99.90;;;;;;20810062;28;20033;-76
2021/12/22 06:37:09;;;;;;;43.22;16.55;;;-0.60;99.90;;;;;;20829285;28;20041;-75
2021/12/22 06:47:10;;;;;;;36.72;16.40;;;-0.50;99.90;;;;;;20809414;28;20029;-76
2021/12/22 06:57:14;;;;;;;45.75;16.20;;;-0.50;99.90;;;;;;20808788;28;20507;-75
2021/12/22 07:07:15;;;;;;;38.13;17.30;;;-0.50;99.90;;;;;;20826342;28;20101;-76
2021/12/22 07:17:16;;;;;;;40.53;17.42;;;-0.50;99.90;;;;;;20825671;28;20030;-76
2021/12/22 07:27:16;;;;;;;43.55;17.60;;;-0.50;99.90;;;;;;20825433;28;20040;-76
2021/12/22 07:37:50;;;;;;;44.55;17.17;;;-0.50;99.90;;;;;;20850791;22;20164;-77
2021/12/22 07:47:51;;;;;;;43.83;17.67;;;-0.40;99.90;;;;;;20882487;28;20052;-76
2021/12/22 07:57:52;;;;;;;48.15;18.83;;;-0.40;99.90;;;;;;20926151;28;20029;-77
2021/12/22 08:07:53;;;;;;;43.63;17.38;;;-0.40;99.90;;;;;;20925439;28;20029;-77
2021/12/22 08:17:55;;;;;;;44.80;18.77;;;-0.40;99.90;;;;;;20924982;28;20040;-78
2021/12/22 08:27:55;;;;;;;42.30;17.50;;;-0.40;99.90;;;;;;20922836;28;20029;-75
2021/12/22 08:48:16;;;;;;;44.05;19.45;;;-0.30;99.90;;;;;;20918274;28;20124;-75
2021/12/22 08:58:16;;;;;;;48.80;19.05;;;-0.30;99.90;;;;;;20917746;28;20048;-75
2021/12/22 09:08:17;;;;;;;46.22;18.63;;;-0.30;99.90;;;;;;20916945;28;20044;-77
2021/12/22 09:18:18;;;;;;;46.97;19.58;;;-0.20;99.90;;;;;;20916296;28;20368;-76
2021/12/22 09:28:19;;;;;;;46.80;18.73;;;-0.30;99.90;;;;;;20913874;28;20079;-76
2021/12/22 09:38:21;;;;;;;320.45;93.15;;;-0.20;99.90;;;;;;20912065;28;20044;-75
2021/12/22 09:48:29;;;;;;;69.13;29.02;;;0.00;99.90;;;;;;20914632;28;20041;-75
2021/12/22 09:58:30;;;;;;;48.30;19.65;;;0.00;99.90;;;;;;20908208;28;20029;-75
2021/12/22 10:08:32;;;;;;;46.10;18.58;;;-0.30;99.90;;;;;;20910362;28;20020;-76
2021/12/22 10:18:33;;;;;;;54.17;18.10;;;-0.20;99.90;;;;;;20909603;28;20033;-76
2021/12/22 10:28:49;;;;;;;39.03;18.13;;;0.00;99.90;;;;;;20910296;28;20104;-75
2021/12/22 10:38:53;;;;;;;44.80;18.58;;;0.10;99.90;;;;;;20908547;28;20036;-74
2021/12/22 10:49:15;;;;;;;47.08;19.73;;;0.20;99.90;;;;;;20909099;28;20044;-74
2021/12/22 10:59:17;;;;;;;44.67;18.77;;;0.20;99.90;;;;;;20909022;28;20060;-75
2021/12/22 11:09:19;;;;;;;44.78;18.02;;;0.10;99.90;;;;;;20907369;28;20498;-75
2021/12/22 11:19:20;;;;;;;40.53;16.85;;;-0.10;99.90;;;;;;20907587;28;20025;-76
2021/12/22 11:29:21;;;;;;;45.97;18.92;;;0.00;99.90;;;;;;20907386;28;20147;-75
2021/12/22 11:39:23;;;;;;;43.70;17.80;;;-0.10;99.90;;;;;;20907068;28;20037;-76
2021/12/22 11:49:25;;;;;;;42.80;18.08;;;0.10;99.90;;;;;;20906527;28;20564;-76
2021/12/22 11:59:36;;;;;;;44.17;18.35;;;0.10;99.90;;;;;;20908020;28;20051;-77
2021/12/22 12:09:46;;;;;;;51.10;19.08;;;0.10;99.90;;;;;;20914215;28;20402;-76
2021/12/22 12:30:29;;;;;;;42.15;17.73;;;0.30;99.90;;;;;;20920058;28;20464;-75
2021/12/22 12:51:29;;;;;;;43.95;17.25;;;0.20;99.90;;;;;;20911482;28;20411;-76
2021/12/22 13:11:55;;;;;;;47.63;19.42;;;0.40;99.90;;;;;;20919257;28;20037;-75
2021/12/22 13:21:56;;;;;;;41.63;17.43;;;0.50;99.90;;;;;;20918941;28;20036;-77
2021/12/22 13:32:10;;;;;;;41.00;17.00;;;0.30;99.90;;;;;;20922045;28;20037;-76
2021/12/22 13:42:14;;;;;;;47.95;20.23;;;0.20;99.90;;;;;;20868166;22;20045;-76
2021/12/22 13:52:16;;;;;;;47.90;18.80;;;0.30;99.90;;;;;;20903159;28;20067;-75
2021/12/22 14:02:35;;;;;;;49.95;18.05;;;0.10;99.90;;;;;;20913136;28;20029;-76
2021/12/22 14:12:37;;;;;;;44.92;18.50;;;0.00;99.90;;;;;;20911128;28;20044;-76
2021/12/22 14:22:42;;;;;;;48.47;20.00;;;0.10;99.90;;;;;;20911478;28;20060;-76
2021/12/22 14:32:58;;;;;;;88.68;25.17;;;0.10;99.90;;;;;;20911029;28;20105;-76
2021/12/22 14:43:00;;;;;;;78.32;26.90;;;0.20;99.90;;;;;;20908062;28;20064;-76
2021/12/22 14:53:11;;;;;;;50.13;19.92;;;0.20;99.90;;;;;;20908142;28;20040;-76
2021/12/22 15:03:13;;;;;;;50.72;20.98;;;0.00;99.90;;;;;;20908793;28;20487;-75
2021/12/22 15:13:16;;;;;;;61.80;22.65;;;-0.10;99.90;;;;;;20908367;28;20129;-76
2021/12/22 15:23:17;;;;;;;48.47;17.60;;;-0.20;99.90;;;;;;20908033;28;20082;-76
2021/12/22 15:33:24;;;;;;;56.40;22.52;;;0.00;99.90;;;;;;20865429;28;20033;-77
2021/12/22 15:43:25;;;;;;;54.35;21.85;;;1.10;99.90;;;;;;20937230;28;20040;-76
2021/12/22 15:53:26;;;;;;;62.08;21.67;;;0.50;99.90;;;;;;20974248;28;20119;-77
2021/12/22 16:03:27;;;;;;;61.33;23.67;;;0.20;99.90;;;;;;21001358;28;20036;-77
2021/12/22 16:13:28;;;;;;;63.25;24.17;;;0.10;99.90;;;;;;20954186;28;20029;-77
2021/12/22 16:23:29;;;;;;;54.95;20.05;;;0.00;99.90;;;;;;20922551;28;20053;-76
2021/12/22 16:33:30;;;;;;;50.13;18.90;;;-0.10;99.90;;;;;;20921243;28;20104;-77
2021/12/22 16:43:31;;;;;;;51.30;19.58;;;-0.30;99.90;;;;;;20919433;28;20482;-77
2021/12/22 16:53:32;;;;;;;65.72;25.77;;;-0.30;99.90;;;;;;20918695;28;20491;-76
2021/12/22 17:03:33;;;;;;;62.63;24.13;;;-0.40;99.90;;;;;;20916646;28;20036;-75
2021/12/22 17:13:34;;;;;;;54.15;19.77;;;-0.50;99.90;;;;;;20915096;28;20112;-76
2021/12/22 17:23:36;;;;;;;48.97;17.85;;;-0.50;99.90;;;;;;20915723;28;20032;-76
2021/12/22 17:33:38;;;;;;;58.78;21.02;;;-0.60;99.90;;;;;;20917805;28;20474;-76
2021/12/22 17:43:39;;;;;;;67.18;24.58;;;-0.60;99.90;;;;;;20916127;28;20044;-76
2021/12/22 17:53:40;;;;;;;58.67;21.50;;;-0.60;99.90;;;;;;20915961;28;20029;-77
2021/12/22 18:03:42;;;;;;;58.38;20.88;;;-0.70;99.90;;;;;;20916465;28;20597;-77
2021/12/22 18:13:44;;;;;;;61.78;21.63;;;-0.70;99.90;;;;;;20915722;28;20041;-76
2021/12/22 18:23:46;;;;;;;59.00;20.10;;;-1.00;99.90;;;;;;20918108;28;20037;-77
2021/12/22 18:33:48;;;;;;;56.83;18.80;;;-0.90;99.90;;;;;;20909032;28;20039;-77
2021/12/22 18:43:51;;;;;;;56.95;21.60;;;-1.00;99.90;;;;;;20903838;28;20029;-76
2021/12/22 18:53:55;;;;;;;58.28;21.23;;;-1.10;99.90;;;;;;20889922;28;20048;-76
2021/12/22 19:03:56;;;;;;;56.05;19.70;;;-1.20;99.90;;;;;;20867629;28;20044;-78
2021/12/22 19:13:57;;;;;;;64.18;21.30;;;-1.30;99.90;;;;;;20897771;28;20069;-77
2021/12/22 19:23:57;;;;;;;56.10;20.60;;;-1.20;99.90;;;;;;20859433;28;20053;-77
2021/12/22 19:33:58;;;;;;;57.30;18.92;;;-1.20;99.90;;;;;;20897150;28;20112;-77
2021/12/22 19:44:00;;;;;;;60.03;20.27;;;-1.20;99.90;;;;;;20855125;28;20400;-76
2021/12/22 19:54:01;;;;;;;68.97;21.52;;;-1.20;99.90;;;;;;20854382;28;20037;-77
2021/12/22 20:04:02;;;;;;;63.67;20.40;;;-1.30;99.90;;;;;;20857149;28;20110;-77
2021/12/22 20:14:06;;;;;;;64.22;21.90;;;-1.20;99.90;;;;;;20798002;22;20046;-75
2021/12/22 20:24:07;;;;;;;63.50;20.63;;;-1.10;99.90;;;;;;20761643;28;20045;-76
2021/12/22 20:34:08;;;;;;;68.85;22.63;;;-1.10;99.90;;;;;;20761624;28;20440;-77
2021/12/22 20:44:11;;;;;;;58.67;19.85;;;-1.00;99.90;;;;;;20749859;28;20036;-76
2021/12/22 20:54:11;;;;;;;58.08;20.40;;;-1.00;99.90;;;;;;20744789;28;20053;-76
2021/12/22 21:04:13;;;;;;;55.88;20.95;;;-0.90;99.90;;;;;;20745683;28;20077;-76
2021/12/22 21:14:14;;;;;;;58.13;19.42;;;-1.00;99.90;;;;;;20747644;28;20117;-76
2021/12/22 21:24:15;;;;;;;56.63;19.38;;;-1.20;99.90;;;;;;20745631;28;20504;-75
2021/12/22 21:34:16;;;;;;;55.33;20.08;;;-1.30;99.90;;;;;;20737643;28;20145;-75
2021/12/22 21:44:17;;;;;;;55.50;21.23;;;-1.40;99.90;;;;;;20714686;28;20042;-74
2021/12/22 21:54:20;;;;;;;54.08;21.10;;;-1.40;99.90;;;;;;20717789;28;20030;-75
2021/12/22 22:04:20;;;;;;;58.65;20.27;;;-1.50;99.90;;;;;;20713745;28;20030;-76
2021/12/22 22:14:21;;;;;;;59.92;20.90;;;-1.50;99.90;;;;;;20731758;28;20040;-76
2021/12/22 22:24:22;;;;;;;56.03;20.05;;;-1.50;99.90;;;;;;20747354;28;20097;-75
2021/12/22 22:34:23;;;;;;;54.97;18.70;;;-1.50;99.90;;;;;;20746776;28;20061;-75
2021/12/22 22:44:24;;;;;;;54.05;19.38;;;-1.40;99.90;;;;;;20746207;28;20033;-76
2021/12/22 22:54:25;;;;;;;52.65;20.02;;;-1.40;99.90;;;;;;20745400;28;20029;-75
2021/12/22 23:04:26;;;;;;;58.10;21.00;;;-1.70;99.90;;;;;;20743837;28;20036;-75
2021/12/22 23:14:27;;;;;;;50.30;18.45;;;-1.60;99.90;;;;;;20743550;28;20567;-76
2021/12/22 23:24:28;;;;;;;53.80;18.77;;;-1.50;99.90;;;;;;20748308;28;20034;-75
2021/12/22 23:34:30;;;;;;;55.30;18.98;;;-1.70;99.90;;;;;;20741121;28;20061;-74
2021/12/22 23:54:41;;;;;;;66.57;22.67;;;-1.90;99.90;;;;;;20742705;28;20500;-76
